Time,TemperatureF,DewpointF,PressureIn,WindDirection,WindDirectionDegrees,WindSpeedMPH,WindSpeedGustMPH,Humidity,HourlyPrecipIn,Conditions,Clouds,dailyrainin,SoftwareType,DateUTC
2013-02-02 00:00:00,19.1,15.1,30.10,South,171,6.0,6.0,84,0.00,,,0.00,Wunderground v.1.15,2013-02-02 06:00:00,
2013-02-02 00:05:00,19.4,15.4,30.10,South,175,5.0,6.0,84,0.00,,,0.00,Wunderground v.1.15,2013-02-02 06:05:00,
2013-02-02 00:11:00,19.7,15.6,30.10,South,190,5.0,10.0,84,0.00,,,0.00,Wunderground v.1.15,2013-02-02 06:11:00,
2013-02-02 00:16:00,20.2,15.9,30.10,SSW,194,6.0,10.0,83,0.00,,,0.00,Wunderground v.1.15,2013-02-02 06:16:00,
2013-02-02 00:21:00,20.6,16.3,30.09,SSW,194,7.0,7.0,83,0.00,,,0.00,Wunderground v.1.15,2013-02-02 06:21:00,
2013-02-02 00:27:00,20.9,16.3,30.09,SSW,202,7.0,11.0,82,0.00,,,0.00,Wunderground v.1.15,2013-02-02 06:27:00,
2013-02-02 00:32:00,21.1,16.5,30.09,SSW,196,7.0,7.0,82,0.00,,,0.00,Wunderground v.1.15,2013-02-02 06:32:00,
2013-02-02 00:37:00,21.2,16.6,30.09,SSW,196,6.0,7.0,82,0.00,,,0.00,Wunderground v.1.15,2013-02-02 06:37:00,
2013-02-02 00:43:00,21.4,16.5,30.08,SSW,200,7.0,10.0,81,0.00,,,0.00,Wunderground v.1.15,2013-02-02 06:43:00,
2013-02-02 00:48:00,21.5,16.6,30.08,SSW,194,7.0,10.0,81,0.00,,,0.00,Wunderground v.1.15,2013-02-02 06:48:00,
2013-02-02 00:53:00,21.6,16.7,30.08,SSW,194,7.0,10.0,81,0.00,,,0.00,Wunderground v.1.15,2013-02-02 06:53:00,
2013-02-02 00:59:00,21.6,16.7,30.07,SSW,198,7.0,10.0,81,0.00,,,0.00,Wunderground v.1.15,2013-02-02 06:59:00,
2013-02-02 01:04:00,21.7,16.8,30.08,SSW,195,7.0,8.0,81,0.00,,,0.00,Wunderground v.1.15,2013-02-02 07:04:00,
2013-02-02 01:10:00,21.7,16.8,30.07,SSW,197,7.0,7.0,81,0.00,,,0.00,Wunderground v.1.15,2013-02-02 07:10:00,
2013-02-02 01:15:00,21.7,16.8,30.07,SSW,200,7.0,7.0,81,0.00,,,0.00,Wunderground v.1.15,2013-02-02 07:15:00,
2013-02-02 01:20:00,21.8,16.9,30.07,SSW,198,7.0,7.0,81,0.00,,,0.00,Wunderground v.1.15,2013-02-02 07:20:00,
2013-02-02 01:26:00,21.9,17.0,30.07,SSW,198,6.0,7.0,81,0.00,,,0.00,Wunderground v.1.15,2013-02-02 07:26:00,
2013-02-02 01:31:00,21.9,17.2,30.06,SSW,198,6.0,7.0,82,0.00,,,0.00,Wunderground v.1.15,2013-02-02 07:31:00,
2013-02-02 01:36:00,22.0,17.3,30.06,SSW,205,6.0,7.0,82,0.00,,,0.00,Wunderground v.1.15,2013-02-02 07:36:00,
2013-02-02 01:42:00,22.1,17.4,30.06,SSW,202,5.0,5.0,82,0.00,,,0.00,Wunderground v.1.15,2013-02-02 07:42:00,
2013-02-02 01:47:00,22.1,17.4,30.06,SSW,201,4.0,5.0,82,0.00,,,0.00,Wunderground v.1.15,2013-02-02 07:47:00,
2013-02-02 01:52:00,22.2,17.5,30.06,SSW,200,3.0,4.0,82,0.00,,,0.00,Wunderground v.1.15,2013-02-02 07:52:00,
2013-02-02 01:58:00,22.3,17.9,30.06,SSW,200,3.0,4.0,83,0.00,,,0.00,Wunderground v.1.15,2013-02-02 07:58:00,
2013-02-02 02:06:00,22.4,18.0,30.06,SSW,196,2.0,4.0,83,0.00,,,0.00,Wunderground v.1.15,2013-02-02 08:06:00,
2013-02-02 02:11:00,22.4,18.0,30.06,SSW,195,1.0,4.0,83,0.00,,,0.00,Wunderground v.1.15,2013-02-02 08:11:00,
2013-02-02 02:17:00,22.5,18.1,30.06,SSW,195,1.0,4.0,83,0.00,,,0.00,Wunderground v.1.15,2013-02-02 08:17:00,
2013-02-02 02:22:00,22.6,18.2,30.06,SSW,196,1.0,4.0,83,0.00,,,0.00,Wunderground v.1.15,2013-02-02 08:22:00,
2013-02-02 02:27:00,22.7,18.3,30.06,SSW,195,1.0,4.0,83,0.00,,,0.00,Wunderground v.1.15,2013-02-02 08:27:00,
2013-02-02 02:33:00,22.8,18.4,30.05,SSW,196,0.0,4.0,83,0.00,,,0.00,Wunderground v.1.15,2013-02-02 08:33:00,
2013-02-02 02:38:00,22.9,18.5,30.05,SSW,196,0.0,4.0,83,0.00,,,0.00,Wunderground v.1.15,2013-02-02 08:38:00,
2013-02-02 02:43:00,23.1,18.7,30.05,SSW,198,0.0,4.0,83,0.00,,,0.00,Wunderground v.1.15,2013-02-02 08:43:00,
2013-02-02 02:49:00,23.3,18.9,30.05,SSW,200,2.0,4.0,83,0.00,,,0.00,Wunderground v.1.15,2013-02-02 08:49:00,
2013-02-02 02:54:00,23.5,19.1,30.05,SSW,200,3.0,4.0,83,0.00,,,0.00,Wunderground v.1.15,2013-02-02 08:54:00,
2013-02-02 02:59:00,23.7,19.3,30.05,SSW,201,3.0,5.0,83,0.00,,,0.00,Wunderground v.1.15,2013-02-02 08:59:00,
2013-02-02 03:05:00,23.9,19.2,30.04,SSW,208,4.0,5.0,82,0.00,,,0.00,Wunderground v.1.15,2013-02-02 09:05:00,
2013-02-02 03:11:00,24.1,19.4,30.04,SSW,213,4.0,4.0,82,0.00,,,0.00,Wunderground v.1.15,2013-02-02 09:11:00,
2013-02-02 03:16:00,24.2,19.5,30.04,SW,218,4.0,5.0,82,0.00,,,0.00,Wunderground v.1.15,2013-02-02 09:16:00,
2013-02-02 03:21:00,24.3,19.3,30.04,SW,235,4.0,6.0,81,0.00,,,0.00,Wunderground v.1.15,2013-02-02 09:21:00,
2013-02-02 03:27:00,24.4,19.4,30.04,WSW,237,4.0,6.0,81,0.00,,,0.00,Wunderground v.1.15,2013-02-02 09:27:00,
2013-02-02 03:32:00,24.4,19.4,30.04,WSW,237,3.0,4.0,81,0.00,,,0.00,Wunderground v.1.15,2013-02-02 09:32:00,
2013-02-02 03:37:00,24.4,19.7,30.04,WSW,237,2.0,4.0,82,0.00,,,0.00,Wunderground v.1.15,2013-02-02 09:37:00,
2013-02-02 03:43:00,24.4,19.7,30.03,WSW,237,3.0,4.0,82,0.00,,,0.00,Wunderground v.1.15,2013-02-02 09:43:00,
2013-02-02 03:48:00,24.4,19.7,30.03,WSW,237,3.0,4.0,82,0.00,,,0.00,Wunderground v.1.15,2013-02-02 09:48:00,
2013-02-02 03:53:00,24.5,19.8,30.03,WSW,238,3.0,4.0,82,0.00,,,0.00,Wunderground v.1.15,2013-02-02 09:53:00,
2013-02-02 03:58:00,24.5,19.8,30.03,WSW,240,4.0,5.0,82,0.00,,,0.00,Wunderground v.1.15,2013-02-02 09:58:00,
2013-02-02 04:04:00,24.7,20.0,30.03,West,264,4.0,9.0,82,0.00,,,0.00,Wunderground v.1.15,2013-02-02 10:04:00,
2013-02-02 04:09:00,24.9,20.2,30.03,West,273,5.0,9.0,82,0.00,,,0.00,Wunderground v.1.15,2013-02-02 10:09:00,
2013-02-02 04:15:00,25.0,20.3,30.03,West,279,6.0,9.0,82,0.00,,,0.00,Wunderground v.1.15,2013-02-02 10:15:00,
2013-02-02 04:20:00,25.0,20.3,30.03,West,281,7.0,10.0,82,0.00,,,0.00,Wunderground v.1.15,2013-02-02 10:20:00,
2013-02-02 04:25:00,25.1,20.4,30.04,WNW,286,7.0,10.0,82,0.00,,,0.00,Wunderground v.1.15,2013-02-02 10:25:00,
2013-02-02 04:31:00,25.0,20.6,30.04,WNW,292,8.0,10.0,83,0.00,,,0.00,Wunderground v.1.15,2013-02-02 10:31:00,
2013-02-02 04:36:00,25.0,20.6,30.04,WNW,298,10.0,14.0,83,0.00,,,0.00,Wunderground v.1.15,2013-02-02 10:36:00,
2013-02-02 04:41:00,25.0,20.6,30.04,NW,309,11.0,11.0,83,0.00,,,0.00,Wunderground v.1.15,2013-02-02 10:41:00,
2013-02-02 04:46:00,24.9,20.5,30.04,WNW,303,11.0,17.0,83,0.00,,,0.00,Wunderground v.1.15,2013-02-02 10:46:00,
2013-02-02 04:52:00,24.7,20.0,30.05,NW,323,13.0,16.0,82,0.00,,,0.00,Wunderground v.1.15,2013-02-02 10:52:00,
2013-02-02 04:57:00,24.4,19.4,30.05,NW,317,14.0,18.0,81,0.00,,,0.00,Wunderground v.1.15,2013-02-02 10:57:00,
2013-02-02 05:03:00,24.1,19.1,30.06,NW,319,15.0,15.0,81,0.00,,,0.00,Wunderground v.1.15,2013-02-02 11:03:00,
2013-02-02 05:08:00,23.8,18.8,30.06,NNW,327,16.0,18.0,81,0.00,,,0.00,Wunderground v.1.15,2013-02-02 11:08:00,
2013-02-02 05:13:00,23.4,18.1,30.06,NNW,337,16.0,19.0,80,0.00,,,0.00,Wunderground v.1.15,2013-02-02 11:13:00,
2013-02-02 05:19:00,22.9,17.7,30.07,NNW,328,17.0,21.0,80,0.00,,,0.00,Wunderground v.1.15,2013-02-02 11:19:00,
2013-02-02 05:24:00,22.5,17.3,30.07,NNW,340,18.0,21.0,80,0.00,,,0.00,Wunderground v.1.15,2013-02-02 11:24:00,
2013-02-02 05:29:00,22.2,17.0,30.07,NNW,342,18.0,21.0,80,0.00,,,0.00,Wunderground v.1.15,2013-02-02 11:29:00,
2013-02-02 05:35:00,22.0,17.1,30.08,NNW,330,15.0,17.0,81,0.00,,,0.00,Wunderground v.1.15,2013-02-02 11:35:00,
2013-02-02 05:40:00,21.8,16.9,30.08,NNW,328,14.0,15.0,81,0.00,,,0.00,Wunderground v.1.15,2013-02-02 11:40:00,
2013-02-02 05:45:00,21.6,16.7,30.08,NNW,334,16.0,19.0,81,0.00,,,0.00,Wunderground v.1.15,2013-02-02 11:45:00,
2013-02-02 05:51:00,21.2,16.0,30.08,NNW,347,16.0,18.0,80,0.00,,,0.00,Wunderground v.1.15,2013-02-02 11:51:00,
2013-02-02 05:56:00,20.8,15.6,30.09,NNW,330,15.0,18.0,80,0.00,,,0.00,Wunderground v.1.15,2013-02-02 11:56:00,
2013-02-02 06:01:00,20.6,15.4,30.09,North,349,15.0,15.0,80,0.00,,,0.00,Wunderground v.1.15,2013-02-02 12:01:00,
2013-02-02 06:07:00,20.5,15.6,30.09,North,350,15.0,19.0,81,0.00,,,0.00,Wunderground v.1.15,2013-02-02 12:07:00,
2013-02-02 06:12:00,20.3,15.4,30.09,NNW,341,16.0,19.0,81,0.00,,,0.00,Wunderground v.1.15,2013-02-02 12:12:00,
2013-02-02 06:17:00,20.2,15.3,30.09,NNW,342,15.0,19.0,81,0.00,,,0.00,Wunderground v.1.15,2013-02-02 12:17:00,
2013-02-02 06:23:00,19.7,14.5,30.10,NNW,333,16.0,20.0,80,0.00,,,0.00,Wunderground v.1.15,2013-02-02 12:23:00,
2013-02-02 06:28:00,19.5,14.3,30.10,NNW,334,18.0,22.0,80,0.00,,,0.00,Wunderground v.1.15,2013-02-02 12:28:00,
2013-02-02 06:34:00,19.3,14.4,30.10,NNW,338,18.0,19.0,81,0.00,,,0.00,Wunderground v.1.15,2013-02-02 12:34:00,
2013-02-02 06:39:00,19.1,14.2,30.11,NNW,338,17.0,21.0,81,0.00,,,0.00,Wunderground v.1.15,2013-02-02 12:39:00,
2013-02-02 06:44:00,18.9,14.0,30.11,NNW,345,18.0,24.0,81,0.00,,,0.00,Wunderground v.1.15,2013-02-02 12:44:00,
2013-02-02 06:49:00,18.6,13.7,30.11,NNW,343,20.0,24.0,81,0.00,,,0.00,Wunderground v.1.15,2013-02-02 12:49:00,
2013-02-02 06:55:00,18.5,13.6,30.11,NNW,345,19.0,20.0,81,0.00,,,0.00,Wunderground v.1.15,2013-02-02 12:55:00,
2013-02-02 07:00:00,18.4,13.5,30.11,NNW,345,18.0,18.0,81,0.00,,,0.00,Wunderground v.1.15,2013-02-02 13:00:00,
2013-02-02 07:05:00,18.3,13.4,30.12,NNW,334,17.0,21.0,81,0.00,,,0.00,Wunderground v.1.15,2013-02-02 13:05:00,
2013-02-02 07:11:00,18.1,13.3,30.13,NNW,329,17.0,17.0,81,0.00,,,0.00,Wunderground v.1.15,2013-02-02 13:11:00,
2013-02-02 07:16:00,18.0,13.4,30.13,NNW,328,17.0,23.0,82,0.00,,,0.00,Wunderground v.1.15,2013-02-02 13:16:00,
2013-02-02 07:21:00,17.8,13.2,30.13,NNW,329,16.0,16.0,82,0.00,,,0.00,Wunderground v.1.15,2013-02-02 13:21:00,
2013-02-02 07:26:00,17.7,13.1,30.13,NNW,345,16.0,18.0,82,0.00,,,0.00,Wunderground v.1.15,2013-02-02 13:26:00,
2013-02-02 07:32:00,17.7,13.1,30.13,North,349,15.0,24.0,82,0.00,,,0.00,Wunderground v.1.15,2013-02-02 13:32:00,
2013-02-02 07:37:00,17.6,13.0,30.13,NNW,332,14.0,24.0,82,0.00,,,0.00,Wunderground v.1.15,2013-02-02 13:37:00,
2013-02-02 07:43:00,17.6,13.0,30.14,NNW,347,14.0,24.0,82,0.00,,,0.00,Wunderground v.1.15,2013-02-02 13:43:00,
2013-02-02 07:48:00,17.5,12.9,30.14,NNW,333,15.0,24.0,82,0.00,,,0.00,Wunderground v.1.15,2013-02-02 13:48:00,
2013-02-02 07:53:00,17.4,12.8,30.14,North,355,15.0,24.0,82,0.00,,,0.00,Wunderground v.1.15,2013-02-02 13:53:00,
2013-02-02 07:59:00,17.3,12.7,30.14,North,350,14.0,24.0,82,0.00,,,0.00,Wunderground v.1.15,2013-02-02 13:59:00,
2013-02-02 08:04:00,17.3,12.7,30.15,NNW,342,13.0,24.0,82,0.00,,,0.00,Wunderground v.1.15,2013-02-02 14:04:00,
2013-02-02 08:09:00,17.2,12.6,30.15,NNW,342,13.0,24.0,82,0.00,,,0.00,Wunderground v.1.15,2013-02-02 14:09:00,
2013-02-02 08:15:00,17.1,12.6,30.15,NNW,348,15.0,24.0,82,0.00,,,0.00,Wunderground v.1.15,2013-02-02 14:15:00,
2013-02-02 08:20:00,17.0,12.2,30.16,NNW,346,14.0,14.0,81,0.00,,,0.00,Wunderground v.1.15,2013-02-02 14:20:00,
2013-02-02 08:26:00,16.9,12.1,30.16,NNW,342,14.0,24.0,81,0.00,,,0.00,Wunderground v.1.15,2013-02-02 14:26:00,
2013-02-02 08:31:00,16.9,12.4,30.16,NNW,346,13.0,24.0,82,0.00,,,0.00,Wunderground v.1.15,2013-02-02 14:31:00,
2013-02-02 08:36:00,16.9,12.4,30.16,NNW,345,11.0,24.0,82,0.00,,,0.00,Wunderground v.1.15,2013-02-02 14:36:00,
2013-02-02 08:42:00,16.8,12.3,30.16,North,351,12.0,24.0,82,0.00,,,0.00,Wunderground v.1.15,2013-02-02 14:42:00,
2013-02-02 08:47:00,16.9,12.4,30.16,NNW,340,12.0,24.0,82,0.00,,,0.00,Wunderground v.1.15,2013-02-02 14:47:00,
2013-02-02 08:53:00,16.9,12.4,30.17,NW,316,11.0,24.0,82,0.00,,,0.00,Wunderground v.1.15,2013-02-02 14:53:00,
2013-02-02 08:58:00,16.9,12.4,30.16,NNW,342,12.0,24.0,82,0.00,,,0.00,Wunderground v.1.15,2013-02-02 14:58:00,
2013-02-02 09:03:00,16.9,12.4,30.17,North,350,12.0,24.0,82,0.00,,,0.00,Wunderground v.1.15,2013-02-02 15:03:00,
2013-02-02 09:09:00,17.0,12.5,30.17,NNW,342,12.0,24.0,82,0.00,,,0.00,Wunderground v.1.15,2013-02-02 15:09:00,
2013-02-02 09:14:00,17.0,12.5,30.17,North,9,11.0,24.0,82,0.00,,,0.00,Wunderground v.1.15,2013-02-02 15:14:00,
2013-02-02 09:20:00,17.0,12.2,30.17,North,355,11.0,11.0,81,0.00,,,0.00,Wunderground v.1.15,2013-02-02 15:20:00,
2013-02-02 09:25:00,16.9,11.8,30.17,North,11,12.0,24.0,80,0.00,,,0.00,Wunderground v.1.15,2013-02-02 15:25:00,
2013-02-02 09:30:00,16.9,11.8,30.17,North,351,11.0,24.0,80,0.00,,,0.00,Wunderground v.1.15,2013-02-02 15:30:00,
2013-02-02 09:36:00,16.9,11.5,30.17,North,360,12.0,24.0,79,0.00,,,0.00,Wunderground v.1.15,2013-02-02 15:36:00,
2013-02-02 09:41:00,16.9,11.5,30.17,North,5,12.0,24.0,79,0.00,,,0.00,Wunderground v.1.15,2013-02-02 15:41:00,
2013-02-02 09:47:00,16.9,11.5,30.17,North,355,11.0,24.0,79,0.00,,,0.00,Wunderground v.1.15,2013-02-02 15:47:00,
2013-02-02 09:52:00,16.9,11.2,30.17,North,360,10.0,24.0,78,0.00,,,0.00,Wunderground v.1.15,2013-02-02 15:52:00,
2013-02-02 09:57:00,16.8,11.1,30.17,North,5,11.0,24.0,78,0.00,,,0.00,Wunderground v.1.15,2013-02-02 15:57:00,
2013-02-02 10:03:00,16.8,11.1,30.17,North,355,12.0,24.0,78,0.00,,,0.00,Wunderground v.1.15,2013-02-02 16:03:00,
2013-02-02 10:08:00,16.9,11.2,30.17,North,355,10.0,24.0,78,0.00,,,0.00,Wunderground v.1.15,2013-02-02 16:08:00,
2013-02-02 10:13:00,16.9,11.2,30.17,North,355,10.0,24.0,78,0.00,,,0.00,Wunderground v.1.15,2013-02-02 16:13:00,
2013-02-02 10:19:00,16.9,10.9,30.18,North,10,11.0,24.0,77,0.00,,,0.00,Wunderground v.1.15,2013-02-02 16:19:00,
2013-02-02 10:24:00,16.9,10.6,30.18,North,355,11.0,24.0,76,0.00,,,0.00,Wunderground v.1.15,2013-02-02 16:24:00,
2013-02-02 10:30:00,17.0,11.0,30.18,North,355,10.0,24.0,77,0.00,,,0.00,Wunderground v.1.15,2013-02-02 16:30:00,
2013-02-02 10:35:00,17.0,10.7,30.17,North,350,10.0,24.0,76,0.00,,,0.00,Wunderground v.1.15,2013-02-02 16:35:00,
2013-02-02 10:41:00,17.0,10.7,30.18,North,355,9.0,10.0,76,0.00,,,0.00,Wunderground v.1.15,2013-02-02 16:41:00,
2013-02-02 10:46:00,17.1,10.8,30.18,North,350,9.0,24.0,76,0.00,,,0.00,Wunderground v.1.15,2013-02-02 16:46:00,
2013-02-02 10:52:00,17.1,11.1,30.19,North,5,10.0,24.0,77,0.00,,,0.00,Wunderground v.1.15,2013-02-02 16:52:00,
2013-02-02 10:57:00,17.1,10.8,30.19,North,360,9.0,24.0,76,0.00,,,0.00,Wunderground v.1.15,2013-02-02 16:57:00,
2013-02-02 11:02:00,17.1,11.1,30.18,North,5,10.0,24.0,77,0.00,,,0.00,Wunderground v.1.15,2013-02-02 17:02:00,
2013-02-02 11:08:00,17.1,11.4,30.18,NNE,24,8.0,24.0,78,0.00,,,0.00,Wunderground v.1.15,2013-02-02 17:08:00,
2013-02-02 11:13:00,17.0,11.3,30.18,NNE,28,7.0,24.0,78,0.00,,,0.00,Wunderground v.1.15,2013-02-02 17:13:00,
2013-02-02 11:19:00,17.1,11.4,30.18,NNE,17,7.0,24.0,78,0.00,,,0.00,Wunderground v.1.15,2013-02-02 17:19:00,
2013-02-02 11:24:00,17.0,11.0,30.18,NNE,15,7.0,24.0,77,0.00,,,0.00,Wunderground v.1.15,2013-02-02 17:24:00,
2013-02-02 11:29:00,17.0,11.0,30.18,North,351,8.0,24.0,77,0.00,,,0.00,Wunderground v.1.15,2013-02-02 17:29:00,
2013-02-02 11:34:00,16.9,10.9,30.18,North,355,8.0,24.0,77,0.00,,,0.00,Wunderground v.1.15,2013-02-02 17:34:00,
2013-02-02 11:40:00,17.0,11.0,30.18,North,355,8.0,8.0,77,0.00,,,0.00,Wunderground v.1.15,2013-02-02 17:40:00,
2013-02-02 11:45:00,17.1,10.8,30.18,North,355,7.0,24.0,76,0.00,,,0.00,Wunderground v.1.15,2013-02-02 17:45:00,
2013-02-02 11:50:00,17.1,10.5,30.18,North,360,6.0,24.0,75,0.00,,,0.00,Wunderground v.1.15,2013-02-02 17:50:00,
2013-02-02 11:56:00,17.2,10.6,30.18,North,355,6.0,24.0,75,0.00,,,0.00,Wunderground v.1.15,2013-02-02 17:56:00,
2013-02-02 12:01:00,17.1,10.5,30.18,NNW,343,7.0,24.0,75,0.00,,,0.00,Wunderground v.1.15,2013-02-02 18:01:00,
2013-02-02 12:06:00,17.0,10.7,30.18,NNW,344,6.0,24.0,76,0.00,,,0.00,Wunderground v.1.15,2013-02-02 18:06:00,
2013-02-02 12:12:00,16.9,10.3,30.17,NNW,342,6.0,24.0,75,0.00,,,0.00,Wunderground v.1.15,2013-02-02 18:12:00,
2013-02-02 12:17:00,16.9,10.6,30.17,NNW,342,6.0,24.0,76,0.00,,,0.00,Wunderground v.1.15,2013-02-02 18:17:00,
2013-02-02 12:22:00,17.0,10.7,30.17,NNW,345,6.0,24.0,76,0.00,,,0.00,Wunderground v.1.15,2013-02-02 18:22:00,
2013-02-02 12:28:00,17.0,10.4,30.18,NNW,345,5.0,24.0,75,0.00,,,0.00,Wunderground v.1.15,2013-02-02 18:28:00,
2013-02-02 12:33:00,16.8,10.5,30.17,NNW,344,5.0,24.0,76,0.00,,,0.00,Wunderground v.1.15,2013-02-02 18:33:00,
2013-02-02 12:39:00,16.7,10.4,30.17,NNW,345,6.0,24.0,76,0.00,,,0.00,Wunderground v.1.15,2013-02-02 18:39:00,
2013-02-02 12:44:00,16.8,10.5,30.17,NNW,344,6.0,24.0,76,0.00,,,0.00,Wunderground v.1.15,2013-02-02 18:44:00,
2013-02-02 12:49:00,16.8,10.2,30.16,NNW,337,5.0,24.0,75,0.00,,,0.00,Wunderground v.1.15,2013-02-02 18:49:00,
2013-02-02 12:55:00,17.1,10.8,30.17,NNW,340,5.0,24.0,76,0.00,,,0.00,Wunderground v.1.15,2013-02-02 18:55:00,
2013-02-02 13:00:00,17.0,10.4,30.16,NNW,338,5.0,5.0,75,0.00,,,0.00,Wunderground v.1.15,2013-02-02 19:00:00,
2013-02-02 13:05:00,16.8,10.5,30.16,NNW,336,5.0,24.0,76,0.00,,,0.00,Wunderground v.1.15,2013-02-02 19:05:00,
2013-02-02 13:11:00,16.6,10.6,30.16,NNW,338,5.0,24.0,77,0.00,,,0.00,Wunderground v.1.15,2013-02-02 19:11:00,
2013-02-02 13:16:00,16.5,10.5,30.16,NNW,338,6.0,24.0,77,0.00,,,0.00,Wunderground v.1.15,2013-02-02 19:16:00,
2013-02-02 13:21:00,16.5,10.8,30.17,NNW,336,6.0,24.0,78,0.00,,,0.00,Wunderground v.1.15,2013-02-02 19:21:00,
2013-02-02 13:26:00,16.4,10.7,30.17,NNW,335,5.0,24.0,78,0.00,,,0.00,Wunderground v.1.15,2013-02-02 19:26:00,
2013-02-02 13:32:00,16.4,10.7,30.18,NNW,335,5.0,24.0,78,0.00,,,0.00,Wunderground v.1.15,2013-02-02 19:32:00,
2013-02-02 13:37:00,16.5,11.1,30.17,NNW,334,5.0,24.0,79,0.00,,,0.00,Wunderground v.1.15,2013-02-02 19:37:00,
2013-02-02 13:43:00,16.5,11.1,30.17,NNW,331,5.0,24.0,79,0.00,,,0.00,Wunderground v.1.15,2013-02-02 19:43:00,
2013-02-02 13:48:00,16.4,11.0,30.18,NNW,331,5.0,24.0,79,0.00,,,0.00,Wunderground v.1.15,2013-02-02 19:48:00,
2013-02-02 13:53:00,16.3,10.9,30.17,NNW,331,5.0,24.0,79,0.00,,,0.00,Wunderground v.1.15,2013-02-02 19:53:00,
2013-02-02 13:59:00,16.4,11.0,30.17,NNW,331,5.0,24.0,79,0.00,,,0.00,Wunderground v.1.15,2013-02-02 19:59:00,
2013-02-02 14:04:00,16.5,11.1,30.17,NNW,331,4.0,24.0,79,0.00,,,0.00,Wunderground v.1.15,2013-02-02 20:04:00,
2013-02-02 14:09:00,16.4,11.0,30.17,NNW,331,5.0,24.0,79,0.00,,,0.00,Wunderground v.1.15,2013-02-02 20:09:00,
2013-02-02 14:15:00,16.5,11.1,30.17,NNW,331,4.0,24.0,79,0.00,,,0.00,Wunderground v.1.15,2013-02-02 20:15:00,
2013-02-02 14:20:00,16.6,11.2,30.17,NNW,331,4.0,24.0,79,0.00,,,0.00,Wunderground v.1.15,2013-02-02 20:20:00,
2013-02-02 14:25:00,16.5,11.1,30.17,NNW,330,4.0,24.0,79,0.00,,,0.00,Wunderground v.1.15,2013-02-02 20:25:00,
2013-02-02 14:31:00,16.7,11.6,30.16,NNW,328,4.0,24.0,80,0.00,,,0.00,Wunderground v.1.15,2013-02-02 20:31:00,
2013-02-02 14:36:00,16.7,11.6,30.16,NNW,328,4.0,24.0,80,0.00,,,0.00,Wunderground v.1.15,2013-02-02 20:36:00,
2013-02-02 14:42:00,16.7,11.9,30.16,NNW,328,4.0,24.0,81,0.00,,,0.00,Wunderground v.1.15,2013-02-02 20:42:00,
2013-02-02 14:47:00,16.8,12.0,30.16,NNW,327,5.0,24.0,81,0.00,,,0.00,Wunderground v.1.15,2013-02-02 20:47:00,
2013-02-02 14:52:00,16.6,11.8,30.17,NW,322,5.0,24.0,81,0.00,,,0.00,Wunderground v.1.15,2013-02-02 20:52:00,
2013-02-02 14:57:00,16.7,11.9,30.17,NW,315,6.0,24.0,81,0.00,,,0.00,Wunderground v.1.15,2013-02-02 20:57:00,
2013-02-02 15:03:00,16.8,11.7,30.17,NW,313,6.0,24.0,80,0.00,,,0.00,Wunderground v.1.15,2013-02-02 21:03:00,
2013-02-02 15:08:00,16.8,11.7,30.17,NW,311,6.0,24.0,80,0.00,,,0.00,Wunderground v.1.15,2013-02-02 21:08:00,
2013-02-02 15:13:00,16.8,11.7,30.17,NW,308,5.0,24.0,80,0.00,,,0.00,Wunderground v.1.15,2013-02-02 21:13:00,
2013-02-02 15:19:00,16.7,11.3,30.17,WNW,287,5.0,24.0,79,0.00,,,0.00,Wunderground v.1.15,2013-02-02 21:19:00,
2013-02-02 15:24:00,16.7,11.6,30.16,WNW,284,4.0,24.0,80,0.00,,,0.00,Wunderground v.1.15,2013-02-02 21:24:00,
2013-02-02 15:29:00,16.7,11.6,30.16,WNW,292,4.0,24.0,80,0.00,,,0.00,Wunderground v.1.15,2013-02-02 21:29:00,
2013-02-02 15:35:00,16.6,11.5,30.16,WNW,290,5.0,24.0,80,0.00,,,0.00,Wunderground v.1.15,2013-02-02 21:35:00,
2013-02-02 15:40:00,16.7,11.6,30.16,WNW,283,4.0,4.0,80,0.00,,,0.00,Wunderground v.1.15,2013-02-02 21:40:00,
2013-02-02 15:45:00,16.7,11.3,30.16,WNW,288,4.0,24.0,79,0.00,,,0.00,Wunderground v.1.15,2013-02-02 21:45:00,
2013-02-02 15:51:00,16.5,11.1,30.17,WNW,294,5.0,24.0,79,0.00,,,0.00,Wunderground v.1.15,2013-02-02 21:51:00,
2013-02-02 15:56:00,16.5,11.4,30.17,WNW,292,5.0,24.0,80,0.00,,,0.00,Wunderground v.1.15,2013-02-02 21:56:00,
2013-02-02 16:02:00,16.3,11.2,30.16,WNW,294,5.0,24.0,80,0.00,,,0.00,Wunderground v.1.15,2013-02-02 22:02:00,
2013-02-02 16:07:00,16.3,11.2,30.15,WNW,289,5.0,24.0,80,0.00,,,0.00,Wunderground v.1.15,2013-02-02 22:07:00,
2013-02-02 16:12:00,16.3,11.2,30.15,WNW,295,4.0,24.0,80,0.00,,,0.00,Wunderground v.1.15,2013-02-02 22:12:00,
2013-02-02 16:18:00,16.4,11.3,30.14,WNW,294,4.0,24.0,80,0.00,,,0.00,Wunderground v.1.15,2013-02-02 22:18:00,
2013-02-02 16:23:00,16.3,10.9,30.14,WNW,294,4.0,24.0,79,0.00,,,0.00,Wunderground v.1.15,2013-02-02 22:23:00,
2013-02-02 16:28:00,16.3,10.9,30.15,WNW,293,3.0,24.0,79,0.00,,,0.00,Wunderground v.1.15,2013-02-02 22:28:00,
2013-02-02 16:34:00,16.2,10.8,30.15,WNW,292,3.0,24.0,79,0.00,,,0.00,Wunderground v.1.15,2013-02-02 22:34:00,
2013-02-02 16:39:00,16.1,10.7,30.15,WNW,292,2.0,24.0,79,0.00,,,0.00,Wunderground v.1.15,2013-02-02 22:39:00,
2013-02-02 16:45:00,15.9,10.5,30.15,WNW,292,2.0,24.0,79,0.00,,,0.00,Wunderground v.1.15,2013-02-02 22:45:00,
2013-02-02 16:50:00,15.8,10.4,30.14,WNW,292,2.0,2.0,79,0.00,,,0.00,Wunderground v.1.15,2013-02-02 22:50:00,
2013-02-02 16:55:00,15.7,10.3,30.15,WNW,292,2.0,24.0,79,0.00,,,0.00,Wunderground v.1.15,2013-02-02 22:55:00,
2013-02-02 17:01:00,15.5,10.1,30.15,WNW,292,2.0,24.0,79,0.00,,,0.00,Wunderground v.1.15,2013-02-02 23:01:00,
2013-02-02 17:06:00,15.3,10.0,30.15,WNW,292,2.0,24.0,79,0.00,,,0.00,Wunderground v.1.15,2013-02-02 23:06:00,
2013-02-02 17:11:00,15.1,9.8,30.15,WNW,292,2.0,24.0,79,0.00,,,0.00,Wunderground v.1.15,2013-02-02 23:11:00,
2013-02-02 17:17:00,14.8,9.5,30.14,WNW,292,2.0,24.0,79,0.00,,,0.00,Wunderground v.1.15,2013-02-02 23:17:00,
2013-02-02 17:22:00,14.6,9.3,30.14,WNW,292,0.0,24.0,79,0.00,,,0.00,Wunderground v.1.15,2013-02-02 23:22:00,
2013-02-02 17:27:00,14.4,9.1,30.13,WNW,292,0.0,24.0,79,0.00,,,0.00,Wunderground v.1.15,2013-02-02 23:27:00,
2013-02-02 17:32:00,14.3,9.3,30.13,WNW,292,0.0,24.0,80,0.00,,,0.00,Wunderground v.1.15,2013-02-02 23:32:00,
2013-02-02 17:38:00,14.0,9.0,30.13,WNW,292,0.0,24.0,80,0.00,,,0.00,Wunderground v.1.15,2013-02-02 23:38:00,
2013-02-02 17:43:00,13.9,8.9,30.13,WNW,292,1.0,24.0,80,0.00,,,0.00,Wunderground v.1.15,2013-02-02 23:43:00,
2013-02-02 17:49:00,13.5,8.5,30.13,WNW,292,1.0,24.0,80,0.00,,,0.00,Wunderground v.1.15,2013-02-02 23:49:00,
2013-02-02 17:54:00,13.3,8.3,30.14,WNW,292,0.0,24.0,80,0.00,,,0.00,Wunderground v.1.15,2013-02-02 23:54:00,
2013-02-02 17:59:00,13.2,8.5,30.13,WNW,292,0.0,24.0,81,0.00,,,0.00,Wunderground v.1.15,2013-02-02 23:59:00,
2013-02-02 18:05:00,13.2,8.5,30.13,WNW,292,0.0,24.0,81,0.00,,,0.00,Wunderground v.1.15,2013-02-03 00:05:00,
2013-02-02 18:10:00,13.2,8.7,30.13,WNW,292,0.0,24.0,82,0.00,,,0.00,Wunderground v.1.15,2013-02-03 00:10:00,
2013-02-02 18:15:00,13.6,9.4,30.11,WNW,292,0.0,24.0,83,0.00,,,0.00,Wunderground v.1.15,2013-02-03 00:15:00,
2013-02-02 18:20:00,14.0,9.5,30.12,WNW,292,1.0,1.0,82,0.00,,,0.00,Wunderground v.1.15,2013-02-03 00:20:00,
2013-02-02 18:26:00,14.3,9.8,30.11,WNW,292,0.0,24.0,82,0.00,,,0.00,Wunderground v.1.15,2013-02-03 00:26:00,
2013-02-02 18:31:00,14.6,10.1,30.12,WNW,292,0.0,24.0,82,0.00,,,0.00,Wunderground v.1.15,2013-02-03 00:31:00,
2013-02-02 18:37:00,14.8,10.3,30.12,WNW,292,0.0,24.0,82,0.00,,,0.00,Wunderground v.1.15,2013-02-03 00:37:00,
2013-02-02 18:42:00,14.9,10.4,30.12,WNW,292,0.0,24.0,82,0.00,,,0.00,Wunderground v.1.15,2013-02-03 00:42:00,
2013-02-02 18:47:00,15.0,10.5,30.12,WNW,292,0.0,24.0,82,0.00,,,0.00,Wunderground v.1.15,2013-02-03 00:47:00,
2013-02-02 18:53:00,15.2,10.7,30.11,WNW,292,0.0,24.0,82,0.00,,,0.00,Wunderground v.1.15,2013-02-03 00:53:00,
2013-02-02 18:58:00,15.2,10.7,30.11,WNW,292,0.0,24.0,82,0.00,,,0.00,Wunderground v.1.15,2013-02-03 00:58:00,
2013-02-02 19:03:00,15.3,10.8,30.10,WNW,292,1.0,24.0,82,0.00,,,0.00,Wunderground v.1.15,2013-02-03 01:03:00,
2013-02-02 19:09:00,15.4,10.6,30.10,WNW,290,2.0,24.0,81,0.00,,,0.00,Wunderground v.1.15,2013-02-03 01:09:00,
2013-02-02 19:14:00,15.6,10.8,30.10,WNW,285,2.0,24.0,81,0.00,,,0.00,Wunderground v.1.15,2013-02-03 01:14:00,
2013-02-02 19:19:00,15.7,10.9,30.11,WNW,285,2.0,24.0,81,0.00,,,0.00,Wunderground v.1.15,2013-02-03 01:19:00,
2013-02-02 19:25:00,15.7,10.9,30.10,West,281,2.0,24.0,81,0.00,,,0.00,Wunderground v.1.15,2013-02-03 01:25:00,
2013-02-02 19:30:00,15.7,10.9,30.10,West,281,2.0,24.0,81,0.00,,,0.00,Wunderground v.1.15,2013-02-03 01:30:00,
2013-02-02 19:35:00,15.6,10.8,30.10,West,279,2.0,24.0,81,0.00,,,0.00,Wunderground v.1.15,2013-02-03 01:35:00,
2013-02-02 19:40:00,15.6,10.8,30.10,West,279,2.0,24.0,81,0.00,,,0.00,Wunderground v.1.15,2013-02-03 01:40:00,
2013-02-02 19:46:00,15.7,11.2,30.09,West,263,2.0,24.0,82,0.00,,,0.00,Wunderground v.1.15,2013-02-03 01:46:00,
2013-02-02 19:51:00,15.7,11.2,30.09,WSW,244,2.0,24.0,82,0.00,,,0.00,Wunderground v.1.15,2013-02-03 01:51:00,
2013-02-02 19:57:00,15.7,11.2,30.09,WSW,239,3.0,24.0,82,0.00,,,0.00,Wunderground v.1.15,2013-02-03 01:57:00,
2013-02-02 20:02:00,15.7,11.2,30.09,WSW,237,2.0,24.0,82,0.00,,,0.00,Wunderground v.1.15,2013-02-03 02:02:00,
2013-02-02 20:07:00,15.8,11.6,30.09,SW,232,2.0,24.0,83,0.00,,,0.00,Wunderground v.1.15,2013-02-03 02:07:00,
2013-02-02 20:13:00,15.9,11.7,30.09,SW,224,3.0,24.0,83,0.00,,,0.00,Wunderground v.1.15,2013-02-03 02:13:00,
2013-02-02 20:18:00,15.9,11.7,30.08,SSW,212,3.0,24.0,83,0.00,,,0.00,Wunderground v.1.15,2013-02-03 02:18:00,
2013-02-02 20:23:00,16.0,11.7,30.08,SSW,205,3.0,24.0,83,0.00,,,0.00,Wunderground v.1.15,2013-02-03 02:23:00,
2013-02-02 20:28:00,16.0,12.0,30.09,SSW,203,3.0,24.0,84,0.00,,,0.00,Wunderground v.1.15,2013-02-03 02:28:00,
2013-02-02 20:34:00,16.0,12.0,30.08,SSW,197,3.0,24.0,84,0.00,,,0.00,Wunderground v.1.15,2013-02-03 02:34:00,
2013-02-02 20:39:00,15.9,12.2,30.08,SSW,192,3.0,24.0,85,0.00,,,0.00,Wunderground v.1.15,2013-02-03 02:39:00,
2013-02-02 20:45:00,15.9,12.2,30.08,South,182,3.0,24.0,85,0.00,,,0.00,Wunderground v.1.15,2013-02-03 02:45:00,
2013-02-02 20:50:00,15.9,12.5,30.08,South,180,3.0,24.0,86,0.00,,,0.00,Wunderground v.1.15,2013-02-03 02:50:00,
2013-02-02 20:55:00,16.0,12.6,30.07,South,177,3.0,24.0,86,0.00,,,0.00,Wunderground v.1.15,2013-02-03 02:55:00,
2013-02-02 21:00:00,16.0,12.6,30.07,South,173,3.0,24.0,86,0.00,,,0.00,Wunderground v.1.15,2013-02-03 03:00:00,
2013-02-02 21:06:00,16.1,12.7,30.07,SSE,167,3.0,24.0,86,0.00,,,0.00,Wunderground v.1.15,2013-02-03 03:06:00,
2013-02-02 21:11:00,16.1,12.7,30.07,SSE,166,3.0,24.0,86,0.00,,,0.00,Wunderground v.1.15,2013-02-03 03:11:00,
2013-02-02 21:17:00,16.1,12.7,30.07,South,172,3.0,24.0,86,0.00,,,0.00,Wunderground v.1.15,2013-02-03 03:17:00,
2013-02-02 21:22:00,16.2,12.7,30.07,South,169,4.0,24.0,86,0.00,,,0.00,Wunderground v.1.15,2013-02-03 03:22:00,
2013-02-02 21:27:00,16.3,13.1,30.06,SSE,167,4.0,24.0,87,0.00,,,0.00,Wunderground v.1.15,2013-02-03 03:27:00,
2013-02-02 21:33:00,16.4,13.2,30.06,South,171,4.0,24.0,87,0.00,,,0.00,Wunderground v.1.15,2013-02-03 03:33:00,
2013-02-02 21:38:00,16.4,13.2,30.06,South,173,4.0,24.0,87,0.00,,,0.00,Wunderground v.1.15,2013-02-03 03:38:00,
2013-02-02 21:43:00,16.4,13.2,30.05,South,175,4.0,24.0,87,0.00,,,0.00,Wunderground v.1.15,2013-02-03 03:43:00,
2013-02-02 21:49:00,16.6,13.4,30.05,South,169,5.0,24.0,87,0.00,,,0.00,Wunderground v.1.15,2013-02-03 03:49:00,
2013-02-02 21:54:00,16.7,13.8,30.04,SSE,166,5.0,24.0,88,0.00,,,0.00,Wunderground v.1.15,2013-02-03 03:54:00,
2013-02-02 21:59:00,16.8,13.9,30.04,SSE,167,4.0,24.0,88,0.00,,,0.00,Wunderground v.1.15,2013-02-03 03:59:00,
2013-02-02 22:05:00,16.8,13.9,30.04,SSE,166,4.0,24.0,88,0.00,,,0.00,Wunderground v.1.15,2013-02-03 04:05:00,
2013-02-02 22:10:00,16.9,14.0,30.03,SSE,164,3.0,24.0,88,0.00,,,0.00,Wunderground v.1.15,2013-02-03 04:10:00,
2013-02-02 22:15:00,17.0,14.1,30.03,SSE,163,3.0,24.0,88,0.00,,,0.00,Wunderground v.1.15,2013-02-03 04:15:00,
2013-02-02 22:21:00,17.0,14.1,30.03,SSE,164,4.0,24.0,88,0.00,,,0.00,Wunderground v.1.15,2013-02-03 04:21:00,
2013-02-02 22:26:00,17.2,14.5,30.03,SSE,167,3.0,24.0,89,0.00,,,0.00,Wunderground v.1.15,2013-02-03 04:26:00,
2013-02-02 22:31:00,17.3,14.6,30.02,South,171,4.0,24.0,89,0.00,,,0.00,Wunderground v.1.15,2013-02-03 04:31:00,
2013-02-02 22:37:00,17.3,14.4,30.02,SSE,165,4.0,24.0,88,0.00,,,0.00,Wunderground v.1.15,2013-02-03 04:37:00,
2013-02-02 22:42:00,17.3,14.4,30.02,SSE,165,5.0,24.0,88,0.00,,,0.00,Wunderground v.1.15,2013-02-03 04:42:00,
2013-02-02 22:47:00,17.4,14.5,30.01,SSE,167,5.0,24.0,88,0.00,,,0.00,Wunderground v.1.15,2013-02-03 04:47:00,
2013-02-02 22:53:00,17.4,14.5,30.01,SSE,165,5.0,24.0,88,0.00,,,0.00,Wunderground v.1.15,2013-02-03 04:53:00,
2013-02-02 22:58:00,17.5,14.6,30.01,SSE,165,5.0,24.0,88,0.00,,,0.00,Wunderground v.1.15,2013-02-03 04:58:00,
2013-02-02 23:00:00,17.5,14.6,30.01,SSE,162,5.0,24.0,88,0.00,,,0.00,Wunderground v.1.15,2013-02-03 05:00:00,
2013-02-02 23:01:00,17.5,14.6,30.01,South,169,5.0,24.0,88,0.00,,,0.00,Wunderground v.1.15,2013-02-03 05:01:00,
2013-02-02 23:02:00,17.5,14.6,30.01,South,171,5.0,24.0,88,0.00,,,0.00,Wunderground v.1.15,2013-02-03 05:02:00,
2013-02-02 23:08:00,17.5,14.6,30.01,SSE,165,5.0,24.0,88,0.00,,,0.00,Wunderground v.1.15,2013-02-03 05:08:00,
2013-02-02 23:13:00,17.5,14.6,30.01,SSE,166,5.0,24.0,88,0.00,,,0.00,Wunderground v.1.15,2013-02-03 05:13:00,
2013-02-02 23:19:00,17.5,14.6,30.01,South,169,5.0,24.0,88,0.00,,,0.00,Wunderground v.1.15,2013-02-03 05:19:00,
2013-02-02 23:24:00,17.6,14.7,30.01,SSE,167,5.0,24.0,88,0.00,,,0.00,Wunderground v.1.15,2013-02-03 05:24:00,
2013-02-02 23:30:00,17.6,14.7,30.01,South,175,5.0,5.0,88,0.00,,,0.00,Wunderground v.1.15,2013-02-03 05:30:00,
2013-02-02 23:35:00,17.6,14.7,30.01,SSE,166,5.0,24.0,88,0.00,,,0.00,Wunderground v.1.15,2013-02-03 05:35:00,
2013-02-02 23:40:00,17.7,14.8,30.01,South,169,5.0,5.0,88,0.00,,,0.00,Wunderground v.1.15,2013-02-03 05:40:00,
2013-02-02 23:46:00,17.7,14.8,30.00,SSE,167,4.0,24.0,88,0.00,,,0.00,Wunderground v.1.15,2013-02-03 05:46:00,
2013-02-02 23:51:00,17.9,14.9,30.00,South,171,5.0,24.0,88,0.00,,,0.00,Wunderground v.1.15,2013-02-03 05:51:00,
2013-02-02 23:56:00,17.9,14.9,30.00,South,170,5.0,24.0,88,0.00,,,0.00,Wunderground v.1.15,2013-02-03 05:56:00,